createdAt,value
2018-09-06T05:41:14.571Z,26.17
2018-09-06T05:43:42.824Z,25.70
2018-09-06T05:46:11.288Z,28.43
2018-09-06T05:48:39.916Z,27.53
2018-09-06T05:51:08.148Z,26.20
2018-09-06T05:53:36.425Z,26.13
2018-09-06T05:56:04.660Z,26.47
2018-09-06T05:58:32.915Z,26.73
2018-09-06T06:01:01.144Z,26.30
2018-09-06T06:03:29.401Z,25.53
2018-09-06T06:05:57.631Z,24.57
2018-09-06T06:08:44.432Z,24.50
2018-09-06T06:11:12.688Z,23.77
2018-09-06T06:13:41.211Z,21.93
2018-09-06T06:16:09.930Z,23.73
2018-09-06T06:18:38.143Z,22.20
2018-09-06T06:21:06.400Z,20.53
2018-09-06T06:23:34.621Z,21.23
2018-09-06T06:26:03.180Z,21.80
2018-09-06T06:28:31.311Z,20.70
2018-09-06T06:30:59.732Z,22.03
2018-09-06T06:33:28.020Z,21.03
2018-09-06T06:35:56.253Z,20.53
2018-09-06T06:38:24.483Z,19.90
2018-09-06T06:40:52.711Z,20.63
2018-09-06T06:43:20.925Z,20.90
2018-09-06T06:45:49.188Z,19.87
2018-09-06T06:48:17.416Z,19.53
2018-09-06T06:50:45.643Z,18.57
2018-09-06T06:53:13.900Z,19.07
2018-09-06T06:55:42.160Z,20.03
2018-09-06T06:58:10.373Z,16.90
2018-09-06T07:00:39.489Z,18.43
2018-09-06T07:03:08.703Z,17.43
2018-09-06T07:05:36.956Z,17.03
2018-09-06T07:08:05.993Z,16.77
2018-09-06T07:10:34.252Z,16.20
2018-09-06T07:13:02.480Z,15.87
2018-09-06T07:15:30.707Z,16.30
2018-09-06T07:17:58.929Z,17.77
2018-09-06T07:20:27.184Z,19.53
2018-09-06T07:22:55.400Z,17.53
2018-09-06T07:25:23.656Z,17.50
2018-09-06T07:27:51.871Z,17.43
2018-09-06T07:30:20.100Z,17.90
2018-09-06T07:32:48.315Z,17.17
2018-09-06T07:35:16.601Z,17.10
2018-09-06T07:37:44.787Z,17.63
2018-09-06T07:40:13.028Z,16.00
2018-09-06T07:42:41.280Z,16.00
2018-09-06T07:45:09.563Z,16.70
2018-09-06T07:47:37.784Z,15.37
2018-09-06T07:50:06.065Z,16.03
2018-09-06T07:52:34.280Z,16.03
2018-09-06T07:55:02.574Z,15.27
2018-09-06T07:57:31.120Z,15.57
2018-09-06T07:59:59.367Z,14.83
2018-09-06T08:02:27.604Z,15.03
2018-09-06T08:04:56.051Z,14.13
2018-09-06T08:07:24.315Z,14.97
2018-09-06T08:09:52.524Z,15.13
2018-09-06T08:12:20.752Z,14.40
2018-09-06T08:14:48.955Z,14.50
2018-09-06T08:17:17.192Z,13.97
2018-09-06T08:19:45.399Z,12.77
2018-09-06T08:22:13.671Z,15.30
2018-09-06T08:24:41.907Z,15.60
2018-09-06T08:27:10.148Z,14.00
2018-09-06T08:29:38.357Z,13.97
2018-09-06T08:32:06.612Z,13.77
2018-09-06T08:34:34.824Z,13.90
2018-09-06T08:37:03.052Z,13.47
2018-09-06T08:39:31.275Z,14.50
2018-09-06T08:41:59.507Z,13.77
2018-09-06T08:44:27.728Z,13.47
2018-09-06T08:46:55.956Z,11.80
2018-09-06T08:49:24.409Z,12.80
2018-09-06T08:51:52.683Z,12.67
2018-09-06T08:54:20.868Z,12.00
2018-09-06T08:56:49.104Z,13.00
2018-09-06T08:59:17.320Z,13.07
2018-09-06T09:01:45.567Z,12.97
2018-09-06T09:04:13.780Z,13.70
2018-09-06T09:06:42.020Z,14.13
2018-09-06T09:09:12.435Z,13.07
2018-09-06T09:11:40.891Z,13.80
2018-09-06T09:14:09.325Z,13.03
2018-09-06T09:16:37.623Z,13.50
2018-09-06T09:19:06.396Z,11.83
2018-09-06T09:21:34.925Z,11.37
2018-09-06T09:24:04.071Z,11.57
2018-09-06T09:26:32.312Z,12.10
2018-09-06T09:29:00.524Z,12.60
2018-09-06T09:31:28.762Z,12.47
2018-09-06T09:33:56.967Z,13.00
2018-09-06T09:36:25.244Z,11.20
2018-09-06T09:38:53.474Z,10.80
2018-09-06T09:41:21.716Z,11.17
2018-09-06T09:43:49.934Z,9.87
2018-09-06T09:48:45.596Z,10.97
2018-09-06T09:51:13.831Z,11.03
2018-09-06T09:53:42.044Z,11.10
2018-09-06T09:56:10.256Z,11.47
2018-09-06T09:58:38.744Z,11.60
2018-09-06T10:01:06.963Z,9.10
2018-09-06T10:03:40.635Z,10.50
2018-09-06T10:06:14.316Z,10.60
2018-09-06T10:08:47.968Z,10.87
2018-09-06T10:11:16.184Z,11.00
2018-09-06T10:13:44.419Z,10.73
2018-09-06T10:16:12.636Z,9.33
2018-09-06T10:18:40.875Z,10.73
2018-09-06T10:21:09.111Z,10.03
2018-09-06T10:23:37.344Z,10.00
2018-09-06T10:26:05.571Z,10.30
2018-09-06T10:28:33.807Z,9.90
2018-09-06T10:31:02.173Z,9.33
2018-09-06T10:33:30.403Z,9.40
2018-09-06T10:35:58.703Z,9.10
2018-09-06T10:38:26.991Z,10.00
2018-09-06T10:40:55.229Z,8.77
2018-09-06T10:43:23.453Z,10.10
2018-09-06T10:45:51.662Z,9.63
2018-09-06T10:48:19.895Z,10.47
2018-09-06T10:50:48.112Z,9.00
2018-09-06T10:53:16.361Z,9.30
2018-09-06T10:55:44.577Z,9.03
2018-09-06T10:58:12.811Z,9.50
2018-09-06T11:00:41.080Z,9.07
2018-09-06T11:03:09.304Z,8.70
2018-09-06T11:05:37.536Z,8.73
2018-09-06T11:08:05.816Z,8.40
2018-09-06T11:10:34.004Z,8.63
2018-09-06T11:13:02.281Z,8.77
2018-09-06T11:15:30.498Z,8.77
2018-09-06T11:17:58.797Z,8.70
2018-09-06T11:20:27.000Z,9.43
2018-09-06T11:22:55.236Z,7.60
2018-09-06T11:25:23.497Z,7.90
2018-09-06T11:27:51.784Z,7.97
2018-09-06T11:30:19.980Z,8.17
2018-09-06T11:32:48.228Z,8.33
2018-09-06T11:35:16.484Z,8.17
2018-09-06T11:37:44.692Z,8.17
2018-09-06T11:40:13.035Z,8.17
2018-09-06T11:42:41.169Z,8.47
2018-09-06T11:45:09.474Z,8.47
2018-09-06T11:47:37.706Z,8.17
2018-09-06T11:50:06.245Z,8.37
2018-09-06T11:52:34.493Z,7.13
2018-09-06T11:55:02.744Z,9.27
2018-09-06T11:57:30.983Z,8.30
2018-09-06T11:59:59.216Z,8.60
2018-09-06T12:02:27.415Z,9.37
2018-09-06T12:04:55.648Z,8.50
2018-09-06T12:07:23.873Z,8.07
2018-09-06T12:09:52.109Z,8.37
2018-09-06T12:12:20.316Z,7.70
2018-09-06T12:14:48.669Z,7.50
2018-09-06T12:17:16.880Z,8.87
2018-09-06T12:19:45.126Z,7.50
2018-09-06T12:22:13.359Z,8.73
2018-09-06T12:24:41.784Z,8.13
2018-09-06T12:27:09.998Z,8.67
2018-09-06T12:29:38.223Z,7.90
2018-09-06T12:32:06.631Z,8.50
2018-09-06T12:34:34.808Z,8.30
2018-09-06T12:37:03.019Z,8.73
2018-09-06T12:39:31.260Z,8.77
2018-09-06T12:41:59.468Z,9.07
2018-09-06T12:44:27.708Z,8.87
2018-09-06T12:46:55.924Z,8.37
2018-09-06T12:49:24.148Z,8.57
2018-09-06T12:51:52.370Z,8.90
2018-09-06T12:54:20.634Z,8.43
2018-09-06T12:56:48.848Z,9.23
2018-09-06T12:59:17.092Z,9.43
2018-09-06T13:01:45.304Z,9.03
2018-09-06T13:04:13.525Z,8.90
2018-09-06T13:06:41.780Z,9.13
2018-09-06T13:09:09.995Z,9.20
2018-09-06T13:11:44.982Z,9.23
2018-09-06T13:14:13.195Z,8.20
2018-09-06T13:16:41.415Z,8.57
2018-09-06T13:19:09.628Z,8.70
2018-09-06T13:21:37.884Z,9.43
2018-09-06T13:24:06.105Z,7.93
2018-09-06T13:26:34.327Z,8.23
2018-09-06T13:29:02.538Z,9.03
2018-09-06T13:31:30.776Z,8.40
2018-09-06T13:33:58.984Z,8.80
2018-09-06T13:36:27.307Z,8.77
2018-09-06T13:38:55.519Z,9.03
2018-09-06T13:41:23.755Z,9.27
2018-09-06T13:43:51.977Z,9.07
2018-09-06T13:46:20.219Z,9.50
2018-09-06T13:48:48.437Z,9.37
2018-09-06T13:51:16.667Z,8.50
2018-09-06T13:53:44.882Z,9.63
2018-09-06T13:56:13.120Z,8.60
2018-09-06T13:58:41.331Z,8.70
2018-09-06T14:01:09.568Z,8.60
2018-09-06T14:03:37.784Z,8.10
2018-09-06T14:06:06.248Z,8.77
2018-09-06T14:08:34.508Z,8.10
2018-09-06T14:11:02.747Z,8.80
2018-09-06T14:13:30.950Z,8.13
2018-09-06T14:15:59.199Z,8.17
2018-09-06T14:18:27.472Z,8.40
2018-09-06T14:20:55.727Z,8.43
2018-09-06T14:23:23.943Z,8.97
2018-09-06T14:25:52.159Z,8.63
2018-09-06T14:28:20.414Z,9.57
2018-09-06T14:30:48.627Z,8.37
2018-09-06T14:33:16.835Z,8.57
2018-09-06T14:35:45.060Z,8.47
2018-09-06T14:38:13.425Z,8.67
2018-09-06T14:40:41.652Z,8.57
2018-09-06T14:43:09.855Z,7.90
2018-09-06T14:45:38.093Z,8.63
2018-09-06T14:48:06.307Z,9.50
2018-09-06T14:50:34.544Z,8.43
2018-09-06T14:53:02.756Z,8.20
2018-09-06T14:55:30.992Z,8.63
2018-09-06T14:57:59.212Z,8.50
2018-09-06T15:00:27.452Z,8.23
2018-09-06T15:02:55.674Z,8.67
2018-09-06T15:05:23.896Z,8.70
2018-09-06T15:07:52.180Z,8.40
2018-09-06T15:10:20.365Z,8.63
2018-09-06T15:12:48.583Z,7.37
2018-09-06T15:15:16.799Z,8.20
2018-09-06T15:17:45.032Z,8.63
2018-09-06T15:20:13.296Z,8.20
2018-09-06T15:22:41.527Z,8.27
2018-09-06T15:25:09.732Z,8.20
2018-09-06T15:27:37.972Z,8.67
2018-09-06T15:30:06.255Z,8.23
2018-09-06T15:32:34.484Z,8.47
2018-09-06T15:35:02.707Z,8.60
2018-09-06T15:37:30.944Z,9.10
2018-09-06T15:39:59.148Z,8.60
2018-09-06T15:42:27.375Z,7.80
2018-09-06T15:44:55.587Z,9.00
2018-09-06T15:47:23.815Z,8.93
2018-09-06T15:49:52.088Z,8.20
2018-09-06T15:52:20.288Z,8.37
2018-09-06T15:54:48.491Z,8.40
2018-09-06T15:57:17.015Z,9.07
2018-09-06T15:59:45.220Z,8.67
2018-09-06T16:02:13.448Z,9.13
2018-09-06T16:04:41.694Z,8.90
2018-09-06T16:07:09.915Z,8.57
2018-09-06T16:09:38.988Z,9.40
2018-09-06T16:12:07.187Z,9.00
2018-09-06T16:14:35.398Z,9.03
2018-09-06T16:17:03.627Z,9.07
2018-09-06T16:19:31.836Z,9.53
2018-09-06T16:22:00.188Z,10.17
2018-09-06T16:24:28.429Z,9.70
2018-09-06T16:26:56.688Z,8.90
2018-09-06T16:29:24.896Z,9.33
2018-09-06T16:31:53.127Z,9.70
2018-09-06T16:34:21.352Z,9.37
2018-09-06T16:36:49.579Z,9.13
2018-09-06T16:39:17.798Z,9.93
2018-09-06T16:41:46.042Z,9.30
2018-09-06T16:44:14.258Z,9.47
2018-09-06T16:46:42.489Z,9.13
2018-09-06T16:49:10.697Z,10.20
2018-09-06T16:51:38.953Z,8.33
2018-09-06T16:54:07.160Z,9.47
2018-09-06T16:56:35.631Z,10.23
2018-09-06T16:59:03.866Z,9.73
2018-09-06T17:01:32.074Z,9.30
2018-09-06T17:04:00.312Z,9.47
2018-09-06T17:06:28.524Z,9.83
2018-09-06T17:08:56.764Z,9.63
2018-09-06T17:11:24.984Z,9.73
2018-09-06T17:13:53.207Z,9.63
2018-09-06T17:16:21.423Z,10.30
2018-09-06T17:18:49.660Z,9.43
2018-09-06T17:21:17.895Z,10.70
2018-09-06T17:23:46.115Z,9.60
2018-09-06T17:26:14.327Z,9.60
2018-09-06T17:28:42.560Z,10.13
2018-09-06T17:31:10.792Z,10.53
2018-09-06T17:33:39.022Z,10.73
2018-09-06T17:36:07.251Z,11.30
2018-09-06T17:38:36.538Z,10.23
2018-09-06T17:41:04.858Z,10.37
2018-09-06T17:43:33.101Z,11.90
2018-09-06T17:46:01.330Z,9.47
2018-09-06T17:48:29.557Z,11.00
2018-09-06T17:50:57.799Z,9.87
2018-09-06T17:53:26.032Z,10.40
2018-09-06T17:55:54.244Z,11.10
2018-09-06T17:58:22.472Z,11.27
2018-09-06T18:01:02.573Z,11.03
2018-09-06T18:03:30.816Z,12.30
2018-09-06T18:05:59.048Z,11.50
2018-09-06T18:08:27.280Z,11.17
2018-09-06T18:10:55.527Z,11.30
2018-09-06T18:13:23.744Z,11.53
2018-09-06T18:15:51.947Z,11.87
2018-09-06T18:18:20.193Z,12.53
2018-09-06T18:20:48.424Z,10.97
2018-09-06T18:23:16.675Z,11.43
2018-09-06T18:25:44.895Z,11.57
2018-09-06T18:28:13.129Z,11.83
2018-09-06T18:30:41.348Z,12.17
2018-09-06T18:33:09.594Z,11.60
2018-09-06T18:35:37.811Z,11.43
2018-09-06T18:38:06.043Z,11.80
2018-09-06T18:40:34.276Z,12.40
2018-09-06T18:43:02.534Z,12.23
2018-09-06T18:45:30.753Z,12.20
2018-09-06T18:47:58.988Z,11.67
2018-09-06T18:50:27.211Z,12.63
2018-09-06T18:52:55.468Z,12.10
2018-09-06T18:55:23.695Z,12.30
2018-09-06T18:57:51.925Z,11.73
2018-09-06T19:00:20.169Z,11.70
2018-09-06T19:02:48.380Z,11.17
